Disclaimer

Please do not use the information listed here in-flight or in-navigation, as they are not provided to us by the airports but are provided by volunteers, so they might be outdated.

Search


Regions


Airport information page

Radio informations:
RENNES TWR - 120.5 MHz
RENNES GND - 121.725 MHz
RENNES ATIS - 136.4 MHz
RENNES APP - 124.9 MHz

Airport informations:
Latitude: 48° 04' 10.23" N
Longitude: 001° 44' 05.26" W
Elevation: 124 feet - 38 meters
Operating hours: 24 hour operations
Operating agency: Civil government, landing fees and diplomatic clearance may be required
Timezone: UTC+1(+2DT) - Last Sunday in March to last Sunday in October
Fuel: Jet A1, without icing nhibitor.

100/130 MIL Spec, low lead, aviation gasoline (BLUE)

Runway information:
10/28 - 6890 x 148 feet< - >2100 x 45 meters
14/32 - 2788 x 98 feet< - >850 x 30 meters

Recent METARs:
LFRN 160900Z AUTO 18007KT CAVOK 06/06 Q1010 TEMPO 4000 SHRA BKN030TCU
LFRN 160930Z AUTO 17007KT 8000 FEW003 SCT240 07/07 Q1010 TEMPO 4000 SHRA BKN030TCU
LFRN 161000Z AUTO 17005KT CAVOK 09/09 Q1010 TEMPO 4000 SHRA BKN030TCU

Airport on the map: